createdAt,value
2023-05-14T00:00:26.269Z,9.93
2023-05-14T00:03:12.572Z,8.67
2023-05-14T00:05:39.043Z,9.53
2023-05-14T00:08:05.893Z,10.13
2023-05-14T00:10:32.502Z,9.53
2023-05-14T00:12:58.605Z,10.23
2023-05-14T00:15:25.050Z,9.70
2023-05-14T00:17:51.142Z,10.47
2023-05-14T00:20:17.650Z,9.83
2023-05-14T00:22:43.866Z,10.03
2023-05-14T00:25:10.447Z,9.93
2023-05-14T00:27:40.014Z,9.73
2023-05-14T00:30:06.952Z,11.23
2023-05-14T00:32:33.150Z,10.17
2023-05-14T00:34:59.746Z,10.53
2023-05-14T00:37:25.857Z,10.70
2023-05-14T00:39:52.191Z,10.43
2023-05-14T00:42:18.538Z,9.77
2023-05-14T00:44:44.944Z,10.80
2023-05-14T00:47:11.740Z,11.60
2023-05-14T00:49:40.131Z,11.30
2023-05-14T00:52:06.824Z,11.67
2023-05-14T00:54:34.132Z,11.50
2023-05-14T00:57:01.258Z,12.17
2023-05-14T00:59:28.037Z,11.33
2023-05-14T01:01:54.270Z,11.00
2023-05-14T01:04:20.986Z,11.63
2023-05-14T01:06:55.808Z,10.93
2023-05-14T01:09:36.109Z,11.57
2023-05-14T01:12:26.606Z,11.23
2023-05-14T01:15:27.972Z,11.67
2023-05-14T01:18:00.513Z,12.37
2023-05-14T01:20:27.001Z,10.97
2023-05-14T01:22:53.145Z,11.97
2023-05-14T01:25:19.756Z,12.93
2023-05-14T01:28:04.583Z,11.93
2023-05-14T01:30:35.100Z,12.50
2023-05-14T01:33:05.549Z,11.93
2023-05-14T01:35:32.852Z,12.57
2023-05-14T01:38:02.669Z,11.80
2023-05-14T01:40:31.325Z,11.70
2023-05-14T01:42:58.449Z,11.37
2023-05-14T01:45:25.534Z,11.30
2023-05-14T01:47:52.981Z,11.03
2023-05-14T01:50:19.374Z,10.57
2023-05-14T01:52:46.026Z,9.93
2023-05-14T01:55:12.408Z,9.93
2023-05-14T01:57:38.721Z,11.20
2023-05-14T02:00:05.660Z,10.80
2023-05-14T02:02:40.226Z,10.53
2023-05-14T02:05:09.764Z,10.50
2023-05-14T02:07:35.885Z,11.00
2023-05-14T02:10:02.368Z,10.37
2023-05-14T02:12:28.433Z,10.80
2023-05-14T02:14:54.929Z,10.73
2023-05-14T02:17:21.160Z,10.47
2023-05-14T02:19:47.648Z,11.73
2023-05-14T02:22:13.926Z,11.87
2023-05-14T02:24:40.461Z,12.23
2023-05-14T02:27:06.512Z,12.00
2023-05-14T02:29:33.187Z,10.70
2023-05-14T02:31:59.296Z,10.80
2023-05-14T02:34:25.777Z,10.90
2023-05-14T02:36:51.836Z,11.73
2023-05-14T02:39:18.302Z,10.93
2023-05-14T02:41:45.037Z,11.13
2023-05-14T02:44:11.404Z,11.93
2023-05-14T02:46:38.022Z,10.70
2023-05-14T02:49:04.501Z,12.80
2023-05-14T02:51:30.704Z,10.87
2023-05-14T02:53:57.040Z,12.00
2023-05-14T02:56:23.214Z,12.27
2023-05-14T02:58:49.699Z,12.77
2023-05-14T03:01:16.090Z,11.90
2023-05-14T03:03:42.867Z,13.27
2023-05-14T03:06:09.638Z,11.70
2023-05-14T03:08:36.017Z,11.80
2023-05-14T03:11:02.373Z,11.40
2023-05-14T03:13:28.805Z,11.90
2023-05-14T03:15:55.123Z,11.63
2023-05-14T03:18:22.461Z,10.07
2023-05-14T03:20:48.548Z,10.30
2023-05-14T03:23:14.992Z,11.47
2023-05-14T03:25:41.160Z,10.37
2023-05-14T03:28:07.512Z,11.00
2023-05-14T03:30:33.643Z,11.13
2023-05-14T03:33:00.189Z,11.37
2023-05-14T03:35:26.414Z,12.73
2023-05-14T03:37:52.863Z,12.90
2023-05-14T03:40:18.935Z,12.63
2023-05-14T03:42:45.487Z,13.33
2023-05-14T03:45:11.666Z,12.67
2023-05-14T03:47:38.095Z,12.27
2023-05-14T03:50:06.165Z,14.20
2023-05-14T03:52:33.102Z,13.60
2023-05-14T03:54:59.188Z,13.47
2023-05-14T03:57:25.607Z,12.80
2023-05-14T03:59:51.662Z,12.90
2023-05-14T04:02:19.085Z,13.80
2023-05-14T04:04:46.475Z,12.93
2023-05-14T04:07:12.929Z,13.30
2023-05-14T04:09:39.028Z,11.97
2023-05-14T04:12:06.052Z,12.70
2023-05-14T04:14:33.189Z,13.47
2023-05-14T04:17:00.353Z,12.80
2023-05-14T04:19:26.898Z,13.73
2023-05-14T04:21:53.398Z,14.03
2023-05-14T04:24:19.779Z,13.53
2023-05-14T04:26:46.479Z,13.27
2023-05-14T04:29:12.764Z,13.27
2023-05-14T04:31:39.299Z,13.67
2023-05-14T04:34:05.486Z,12.67
2023-05-14T04:36:32.191Z,13.40
2023-05-14T04:38:58.369Z,13.77
2023-05-14T04:41:25.552Z,13.37
2023-05-14T04:43:55.485Z,13.67
2023-05-14T04:46:22.290Z,13.47
2023-05-14T04:48:49.568Z,13.33
2023-05-14T04:51:16.248Z,13.17
2023-05-14T04:53:42.555Z,13.73
2023-05-14T04:56:09.331Z,12.33
2023-05-14T04:58:35.912Z,12.93
2023-05-14T05:01:04.399Z,12.30
2023-05-14T05:03:30.836Z,12.97
2023-05-14T05:05:57.755Z,12.77
2023-05-14T05:08:24.267Z,12.93
2023-05-14T05:10:50.770Z,13.60
2023-05-14T05:13:17.070Z,12.97
2023-05-14T05:15:43.901Z,13.47
2023-05-14T05:18:10.185Z,12.83
2023-05-14T05:20:36.584Z,13.27
2023-05-14T05:23:02.770Z,13.20
2023-05-14T05:25:29.175Z,13.23
2023-05-14T05:27:55.302Z,13.83
2023-05-14T05:30:22.184Z,13.37
2023-05-14T05:32:48.625Z,13.33
2023-05-14T05:35:15.153Z,13.77
2023-05-14T05:37:42.292Z,12.97
2023-05-14T05:40:09.687Z,13.43
2023-05-14T05:42:36.011Z,13.30
2023-05-14T05:45:02.692Z,13.23
2023-05-14T05:47:29.584Z,12.77
2023-05-14T05:49:56.218Z,13.80
2023-05-14T05:52:22.896Z,13.20
2023-05-14T05:54:49.501Z,14.03
2023-05-14T05:57:15.740Z,12.97
2023-05-14T05:59:42.272Z,13.40
2023-05-14T06:02:08.822Z,13.73
2023-05-14T06:04:35.716Z,13.63
2023-05-14T06:07:01.935Z,14.27
2023-05-14T06:09:28.542Z,13.50
2023-05-14T06:11:55.209Z,13.13
2023-05-14T06:14:21.672Z,12.27
2023-05-14T06:16:48.427Z,12.73
2023-05-14T06:19:15.172Z,13.83
2023-05-14T06:21:41.485Z,11.63
2023-05-14T06:24:08.249Z,12.17
2023-05-14T06:26:34.524Z,11.20
2023-05-14T06:29:01.311Z,11.37
2023-05-14T06:31:27.526Z,11.67
2023-05-14T06:33:54.085Z,11.13
2023-05-14T06:36:20.192Z,11.30
2023-05-14T06:38:46.634Z,11.23
2023-05-14T06:41:12.790Z,9.77
2023-05-14T06:43:39.333Z,11.57
2023-05-14T06:46:06.429Z,11.02
2023-05-14T06:48:35.363Z,10.90
2023-05-14T06:51:02.636Z,10.50
2023-05-14T06:53:28.965Z,9.85
2023-05-14T06:55:55.582Z,10.20
2023-05-14T06:58:21.893Z,9.38
2023-05-14T07:00:47.964Z,9.32
2023-05-14T07:03:14.387Z,8.93
2023-05-14T07:05:40.623Z,8.98
2023-05-14T07:08:07.057Z,8.70
2023-05-14T07:10:33.280Z,7.25
2023-05-14T07:12:59.721Z,6.68
2023-05-14T07:15:25.974Z,7.65
2023-05-14T07:17:52.499Z,7.55
2023-05-14T07:20:18.688Z,6.13
2023-05-14T07:22:45.084Z,6.82
2023-05-14T07:25:12.121Z,6.68
2023-05-14T07:27:41.451Z,6.22
2023-05-14T07:30:08.098Z,6.07
2023-05-14T07:32:34.679Z,6.72
2023-05-14T07:35:01.284Z,6.70
2023-05-14T07:37:28.014Z,6.70
2023-05-14T07:39:54.181Z,6.57
2023-05-14T07:42:34.361Z,6.90
2023-05-14T07:45:03.000Z,6.95
2023-05-14T07:47:29.865Z,6.65
2023-05-14T07:49:56.752Z,6.22
2023-05-14T07:52:23.744Z,5.85
2023-05-14T07:54:51.160Z,6.03
2023-05-14T07:57:18.782Z,5.18
2023-05-14T07:59:46.030Z,4.90
2023-05-14T08:02:13.358Z,4.60
2023-05-14T08:04:39.874Z,4.30
2023-05-14T08:07:07.825Z,3.45
2023-05-14T08:09:34.292Z,4.20
2023-05-14T08:12:00.944Z,3.50
2023-05-14T08:14:28.015Z,3.40
2023-05-14T08:16:54.644Z,3.30
2023-05-14T08:19:22.444Z,5.05
2023-05-14T08:21:49.038Z,5.15
2023-05-14T08:24:15.248Z,3.20
2023-05-14T08:26:41.800Z,3.55
2023-05-14T08:29:10.626Z,4.38
2023-05-14T08:31:37.880Z,3.97
2023-05-14T08:34:04.368Z,4.22
2023-05-14T08:36:32.156Z,4.07
2023-05-14T08:38:58.574Z,4.13
2023-05-14T08:41:25.111Z,3.80
2023-05-14T08:44:10.470Z,3.88
2023-05-14T08:46:38.421Z,4.10
2023-05-14T08:49:15.915Z,3.30
2023-05-14T08:51:47.921Z,3.63
2023-05-14T08:54:17.829Z,3.58
2023-05-14T08:56:46.127Z,4.20
2023-05-14T08:59:12.576Z,3.30
2023-05-14T09:01:45.705Z,3.90
2023-05-14T09:04:15.123Z,3.80
2023-05-14T09:06:42.929Z,3.78
2023-05-14T09:09:10.712Z,3.92
2023-05-14T09:11:47.385Z,3.47
2023-05-14T09:14:13.869Z,4.10
2023-05-14T09:16:42.434Z,3.90
2023-05-14T09:19:08.895Z,4.05
2023-05-14T09:21:36.502Z,4.18
2023-05-14T09:24:03.269Z,3.70
2023-05-14T09:26:32.382Z,4.13
2023-05-14T09:29:01.219Z,3.70
2023-05-14T09:31:32.722Z,3.80
2023-05-14T09:34:00.055Z,3.85
2023-05-14T09:36:26.808Z,4.35
2023-05-14T09:38:56.285Z,3.70
2023-05-14T09:41:22.885Z,3.22
2023-05-14T09:43:50.774Z,3.65
2023-05-14T09:46:17.637Z,4.10
2023-05-14T09:48:45.189Z,3.85
2023-05-14T09:51:12.904Z,3.10
2023-05-14T09:53:40.653Z,3.92
2023-05-14T09:56:07.179Z,4.22
2023-05-14T09:58:33.430Z,3.03
2023-05-14T10:01:01.941Z,3.65
2023-05-14T10:03:29.971Z,3.22
2023-05-14T10:06:03.756Z,2.90
2023-05-14T10:08:34.640Z,3.95
2023-05-14T10:11:05.640Z,3.20
2023-05-14T10:13:39.797Z,3.60
2023-05-14T10:16:27.653Z,3.30
2023-05-14T10:18:59.281Z,3.63
2023-05-14T10:21:29.178Z,3.85
2023-05-14T10:23:55.787Z,4.10
2023-05-14T10:26:24.018Z,3.50
2023-05-14T10:28:50.651Z,3.40
2023-05-14T10:31:17.104Z,3.42
2023-05-14T10:33:49.657Z,3.25
2023-05-14T10:36:20.131Z,3.50
2023-05-14T10:38:46.724Z,3.85
2023-05-14T10:41:17.348Z,3.20
2023-05-14T10:43:44.028Z,3.88
2023-05-14T10:46:12.269Z,3.58
2023-05-14T10:48:41.325Z,3.80
2023-05-14T10:51:12.974Z,19.55
2023-05-14T10:53:42.042Z,6.05
2023-05-14T10:56:10.728Z,41.33
2023-05-14T10:58:49.185Z,27.67
2023-05-14T11:01:15.825Z,52.80
2023-05-14T11:03:46.638Z,67.30
2023-05-14T11:06:14.863Z,6.00
2023-05-14T11:08:41.912Z,35.75
2023-05-14T11:11:09.188Z,6.28
2023-05-14T11:13:35.317Z,15.70
2023-05-14T11:16:12.022Z,72.05
2023-05-14T11:18:53.025Z,5.00
2023-05-14T11:21:19.541Z,32.65
2023-05-14T11:23:46.041Z,81.30
2023-05-14T11:26:12.626Z,111.28
2023-05-14T11:28:39.330Z,863.10
2023-05-14T11:31:05.911Z,229.27
2023-05-14T11:33:32.371Z,910.25
2023-05-14T11:35:58.894Z,632.67
2023-05-14T11:38:25.327Z,358.25
2023-05-14T11:40:53.830Z,161.07
2023-05-14T11:43:22.865Z,871.90
2023-05-14T11:45:51.704Z,503.85
2023-05-14T11:48:19.009Z,342.50
2023-05-14T11:50:50.349Z,34.33
2023-05-14T11:53:24.258Z,15.38
2023-05-14T11:55:53.428Z,3.92
2023-05-14T11:58:20.623Z,3.88
2023-05-14T12:00:51.388Z,6.53
2023-05-14T12:03:25.358Z,4.13
2023-05-14T12:05:58.267Z,2.63
2023-05-14T12:08:32.854Z,2.25
2023-05-14T12:11:00.464Z,4.75
2023-05-14T12:13:30.708Z,23.67
2023-05-14T12:16:04.672Z,4.13
2023-05-14T12:18:31.829Z,13.40
2023-05-14T12:21:07.688Z,3.20
2023-05-14T12:23:34.056Z,3.10
2023-05-14T12:26:03.066Z,2.33
2023-05-14T12:28:29.983Z,2.20
2023-05-14T12:30:57.728Z,4.15
2023-05-14T12:33:26.232Z,3.00
2023-05-14T12:35:58.831Z,5.05
2023-05-14T12:38:28.071Z,2.88
2023-05-14T12:40:54.977Z,2.60
2023-05-14T12:43:21.296Z,6.00
2023-05-14T12:45:48.238Z,3.40
2023-05-14T12:48:15.261Z,4.03
2023-05-14T12:50:42.094Z,3.90
2023-05-14T12:53:08.543Z,6.13
2023-05-14T12:55:35.169Z,4.50
2023-05-14T12:58:01.473Z,3.20
2023-05-14T13:00:28.022Z,3.22
2023-05-14T13:02:54.714Z,5.03
2023-05-14T13:05:21.440Z,5.90
2023-05-14T13:07:47.955Z,5.32
2023-05-14T13:10:16.828Z,6.15
2023-05-14T13:12:43.021Z,9.25
2023-05-14T13:15:10.313Z,4.53
2023-05-14T13:17:36.816Z,9.85
2023-05-14T13:20:04.049Z,5.63
2023-05-14T13:22:30.200Z,4.47
2023-05-14T13:24:56.655Z,3.28
2023-05-14T13:27:22.750Z,3.72
2023-05-14T13:29:49.177Z,3.70
2023-05-14T13:32:15.250Z,3.78
2023-05-14T13:34:43.320Z,3.15
2023-05-14T13:37:10.190Z,3.70
2023-05-14T13:39:36.704Z,5.68
2023-05-14T13:42:03.147Z,6.25
2023-05-14T13:44:29.795Z,4.72
2023-05-14T13:46:57.066Z,4.05
2023-05-14T13:49:23.684Z,3.17
2023-05-14T13:51:49.880Z,3.70
2023-05-14T13:54:17.181Z,3.80
2023-05-14T13:56:43.574Z,2.90
2023-05-14T13:59:10.541Z,5.65
2023-05-14T14:01:36.753Z,3.20
2023-05-14T14:04:03.266Z,3.83
2023-05-14T14:06:31.759Z,3.50
2023-05-14T14:08:58.179Z,3.33
2023-05-14T14:11:24.790Z,3.20
2023-05-14T14:13:51.267Z,3.88
2023-05-14T14:16:17.534Z,5.28
2023-05-14T14:18:46.374Z,4.55
2023-05-14T14:21:12.690Z,3.28
2023-05-14T14:23:39.200Z,3.42
2023-05-14T14:26:05.850Z,3.70
2023-05-14T14:28:32.384Z,3.28
2023-05-14T14:30:58.925Z,3.90
2023-05-14T14:33:26.332Z,3.40
2023-05-14T14:35:52.481Z,3.50
2023-05-14T14:38:19.252Z,3.13
2023-05-14T14:40:46.045Z,3.47
2023-05-14T14:43:12.515Z,3.05
2023-05-14T14:45:39.001Z,3.08
2023-05-14T14:48:25.372Z,3.65
2023-05-14T14:50:52.639Z,3.75
2023-05-14T14:53:20.412Z,4.50
2023-05-14T14:55:47.702Z,3.05
2023-05-14T14:58:14.263Z,3.40
2023-05-14T15:00:40.679Z,3.47
2023-05-14T15:03:09.154Z,2.92
2023-05-14T15:05:35.733Z,3.10
2023-05-14T15:08:02.736Z,3.35
2023-05-14T15:10:31.442Z,3.20
2023-05-14T15:12:59.086Z,3.58
2023-05-14T15:15:26.025Z,4.10
2023-05-14T15:17:52.580Z,2.80
2023-05-14T15:20:18.825Z,2.55
2023-05-14T15:22:45.566Z,2.40
2023-05-14T15:25:11.824Z,2.28
2023-05-14T15:32:00.151Z,2.10
2023-05-14T15:34:27.084Z,2.20
2023-05-14T15:36:53.211Z,1.80
2023-05-14T15:39:19.698Z,2.65
2023-05-14T15:41:46.077Z,17.23
2023-05-14T15:44:12.726Z,17.55
2023-05-14T15:46:39.093Z,5.28
2023-05-14T15:49:06.134Z,2.30
2023-05-14T15:51:32.449Z,2.13
2023-05-14T15:53:59.117Z,2.40
2023-05-14T15:56:25.371Z,2.20
2023-05-14T15:58:52.006Z,2.08
2023-05-14T16:01:18.905Z,2.63
2023-05-14T16:03:45.870Z,1.88
2023-05-14T16:06:12.233Z,2.38
2023-05-14T16:08:39.246Z,1.90
2023-05-14T16:11:07.347Z,2.03
2023-05-14T16:13:35.247Z,1.70
2023-05-14T16:16:01.710Z,1.42
2023-05-14T16:18:29.005Z,1.63
2023-05-14T16:20:55.709Z,1.48
2023-05-14T16:23:22.439Z,1.42
2023-05-14T16:25:48.887Z,1.73
2023-05-14T16:28:15.498Z,1.73
2023-05-14T16:30:41.826Z,6.30
2023-05-14T16:33:08.958Z,2.40
2023-05-14T16:35:35.656Z,3.67
2023-05-14T16:38:02.351Z,2.88
2023-05-14T16:40:28.605Z,2.45
2023-05-14T16:42:55.133Z,1.35
2023-05-14T16:45:21.703Z,1.90
2023-05-14T16:47:48.484Z,1.70
2023-05-14T16:50:15.802Z,1.73
2023-05-14T16:52:42.626Z,1.30
2023-05-14T16:55:09.233Z,1.40
2023-05-14T16:57:36.421Z,1.65
2023-05-14T17:00:05.489Z,1.85
2023-05-14T17:02:33.056Z,2.13
2023-05-14T17:05:00.012Z,1.30
2023-05-14T17:07:27.043Z,1.85
2023-05-14T17:09:53.453Z,1.83
2023-05-14T17:12:19.994Z,1.63
2023-05-14T17:14:46.618Z,1.30
2023-05-14T17:17:13.245Z,2.00
2023-05-14T17:19:39.757Z,1.35
2023-05-14T17:22:06.763Z,1.40
2023-05-14T17:24:34.921Z,1.73
2023-05-14T17:27:01.451Z,1.92
2023-05-14T17:29:28.109Z,1.70
2023-05-14T17:31:55.125Z,2.17
2023-05-14T17:34:22.016Z,1.35
2023-05-14T17:36:48.489Z,1.70
2023-05-14T17:39:15.352Z,2.58
2023-05-14T17:41:42.020Z,1.48
2023-05-14T17:44:09.481Z,1.70
2023-05-14T17:46:37.329Z,1.73
2023-05-14T17:49:03.917Z,1.85
2023-05-14T17:51:30.866Z,1.73
2023-05-14T17:53:57.561Z,1.85
2023-05-14T17:56:24.232Z,1.70
2023-05-14T17:58:51.237Z,1.85
2023-05-14T18:04:04.077Z,1.67
2023-05-14T18:06:30.550Z,1.55
2023-05-14T18:08:57.124Z,2.17
2023-05-14T18:11:23.528Z,1.83
2023-05-14T18:13:50.544Z,1.92
2023-05-14T18:16:17.344Z,2.38
2023-05-14T18:18:44.344Z,2.33
2023-05-14T18:21:11.051Z,1.92
2023-05-14T18:23:37.881Z,2.03
2023-05-14T18:26:04.254Z,1.92
2023-05-14T18:28:30.892Z,2.17
2023-05-14T18:30:57.402Z,1.88
2023-05-14T18:33:24.120Z,1.70
2023-05-14T18:35:50.983Z,1.80
2023-05-14T18:38:18.779Z,1.67
2023-05-14T18:40:45.898Z,1.90
2023-05-14T18:43:14.001Z,1.60
2023-05-14T18:45:40.532Z,1.55
2023-05-14T18:48:08.214Z,1.98
2023-05-14T18:50:36.105Z,1.73
2023-05-14T18:53:03.765Z,1.58
2023-05-14T18:55:30.634Z,2.17
2023-05-14T18:57:57.795Z,2.10
2023-05-14T19:00:24.244Z,2.10
2023-05-14T19:02:53.447Z,2.20
2023-05-14T19:05:19.981Z,2.47
2023-05-14T19:07:48.820Z,2.10
2023-05-14T19:10:15.484Z,2.23
2023-05-14T19:12:42.167Z,2.80
2023-05-14T19:15:09.035Z,3.13
2023-05-14T19:17:36.683Z,3.10
2023-05-14T19:20:05.685Z,2.33
2023-05-14T19:22:32.235Z,1.87
2023-05-14T19:24:58.644Z,2.10
2023-05-14T19:27:26.047Z,1.80
2023-05-14T19:29:52.250Z,2.07
2023-05-14T19:32:21.821Z,2.13
2023-05-14T19:34:49.531Z,2.47
2023-05-14T19:37:17.750Z,2.47
2023-05-14T19:39:44.146Z,4.03
2023-05-14T19:42:10.809Z,6.00
2023-05-14T19:44:37.259Z,6.97
2023-05-14T19:47:04.497Z,8.13
2023-05-14T19:49:30.770Z,8.53
2023-05-14T19:51:57.322Z,8.03
2023-05-14T19:54:23.671Z,8.70
2023-05-14T19:56:50.470Z,10.47
2023-05-14T19:59:16.692Z,9.13
2023-05-14T20:01:43.583Z,8.57
2023-05-14T20:04:10.386Z,8.33
2023-05-14T20:06:37.532Z,8.13
2023-05-14T20:09:05.417Z,8.10
2023-05-14T20:11:32.102Z,8.40
2023-05-14T20:13:58.525Z,10.27
2023-05-14T20:16:25.364Z,9.00
2023-05-14T20:18:53.367Z,8.20
2023-05-14T20:21:19.980Z,9.97
2023-05-14T20:23:46.345Z,9.43
2023-05-14T20:26:12.947Z,9.17
2023-05-14T20:28:39.249Z,7.60
2023-05-14T20:31:05.978Z,8.43
2023-05-14T20:33:32.423Z,12.70
2023-05-14T20:35:59.051Z,6.40
2023-05-14T20:38:28.581Z,7.40
2023-05-14T20:40:55.419Z,7.60
2023-05-14T20:43:21.842Z,7.73
2023-05-14T20:45:48.883Z,6.40
2023-05-14T20:48:16.954Z,7.47
2023-05-14T20:50:44.064Z,7.87
2023-05-14T20:53:10.270Z,8.80
2023-05-14T20:55:37.364Z,5.50
2023-05-14T20:58:03.612Z,5.53
2023-05-14T21:00:30.156Z,7.03
2023-05-14T21:02:56.722Z,7.77
2023-05-14T21:05:24.095Z,8.03
2023-05-14T21:07:50.791Z,9.87
2023-05-14T21:10:20.121Z,12.60
2023-05-14T21:12:46.402Z,8.77
2023-05-14T21:15:12.946Z,10.90
2023-05-14T21:17:39.307Z,8.50
2023-05-14T21:20:06.390Z,8.13
2023-05-14T21:22:32.846Z,8.20
2023-05-14T21:24:59.490Z,6.63
2023-05-14T21:27:25.915Z,7.13
2023-05-14T21:29:52.420Z,6.90
2023-05-14T21:32:19.413Z,6.57
2023-05-14T21:34:45.946Z,7.43
2023-05-14T21:37:12.022Z,7.10
2023-05-14T21:39:38.394Z,7.20
2023-05-14T21:42:04.831Z,6.90
2023-05-14T21:44:31.243Z,6.60
2023-05-14T21:46:57.332Z,5.43
2023-05-14T21:49:23.705Z,5.60
2023-05-14T21:51:52.247Z,5.43
2023-05-14T21:54:18.981Z,6.50
2023-05-14T21:56:45.386Z,7.00
2023-05-14T21:59:11.958Z,7.67
2023-05-14T22:01:50.546Z,5.43
2023-05-14T22:04:22.568Z,6.50
2023-05-14T22:06:48.705Z,6.63
2023-05-14T22:09:15.198Z,6.83
2023-05-14T22:11:41.343Z,6.50
2023-05-14T22:14:07.942Z,6.27
2023-05-14T22:16:34.198Z,5.00
2023-05-14T22:19:00.796Z,5.50
2023-05-14T22:21:27.874Z,5.07
2023-05-14T22:23:54.415Z,5.43
2023-05-14T22:26:23.277Z,5.27
2023-05-14T22:28:49.834Z,5.13
2023-05-14T22:31:16.016Z,5.53
2023-05-14T22:33:42.872Z,5.83
2023-05-14T22:36:09.743Z,6.30
2023-05-14T22:38:36.143Z,6.63
2023-05-14T22:41:02.207Z,7.50
2023-05-14T22:43:28.664Z,6.27
2023-05-14T22:45:54.924Z,6.20
2023-05-14T22:48:21.688Z,6.47
2023-05-14T22:50:47.812Z,7.00
2023-05-14T22:53:14.269Z,7.97
2023-05-14T22:55:40.379Z,8.47
2023-05-14T22:58:06.740Z,9.20
2023-05-14T23:00:32.953Z,8.53
2023-05-14T23:02:59.377Z,5.93
2023-05-14T23:05:26.150Z,6.20
2023-05-14T23:07:54.626Z,8.00
2023-05-14T23:10:20.714Z,8.40
2023-05-14T23:12:47.135Z,7.93
2023-05-14T23:15:13.324Z,9.40
2023-05-14T23:17:39.922Z,9.87
2023-05-14T23:20:10.013Z,8.73
2023-05-14T23:22:36.369Z,8.60
2023-05-14T23:25:02.954Z,9.17
2023-05-14T23:27:29.333Z,8.57
2023-05-14T23:29:55.543Z,8.93
2023-05-14T23:32:22.474Z,7.93
2023-05-14T23:34:48.552Z,7.83
2023-05-14T23:37:14.932Z,6.93
2023-05-14T23:39:41.125Z,6.70
2023-05-14T23:42:07.450Z,6.60
2023-05-14T23:44:33.624Z,7.90
2023-05-14T23:47:00.250Z,7.53
2023-05-14T23:49:26.370Z,7.10
2023-05-14T23:51:52.908Z,7.57
2023-05-14T23:54:19.055Z,7.40
2023-05-14T23:56:45.484Z,8.20
2023-05-14T23:59:11.635Z,7.13
